sensor_id;sensor_type;location;lat;lon;timestamp;P1;durP1;ratioP1;P2;durP2;ratioP2
43690;SDS011;29293;52.190;21.226;2022-12-07T00:09:06;56.40;;;30.00;;
43690;SDS011;29293;52.190;21.226;2022-12-07T00:24:15;56.90;;;29.50;;
43690;SDS011;29293;52.190;21.226;2022-12-07T00:39:23;54.40;;;28.40;;
43690;SDS011;29293;52.190;21.226;2022-12-07T00:54:30;54.00;;;27.60;;
43690;SDS011;29293;52.190;21.226;2022-12-07T01:09:37;47.90;;;25.90;;
43690;SDS011;29293;52.190;21.226;2022-12-07T01:24:44;43.00;;;23.70;;
43690;SDS011;29293;52.190;21.226;2022-12-07T01:39:52;44.00;;;24.70;;
43690;SDS011;29293;52.190;21.226;2022-12-07T01:55:00;49.30;;;27.40;;
43690;SDS011;29293;52.190;21.226;2022-12-07T02:10:13;46.30;;;27.00;;
43690;SDS011;29293;52.190;21.226;2022-12-07T02:25:25;48.30;;;26.40;;
43690;SDS011;29293;52.190;21.226;2022-12-07T02:40:48;52.60;;;29.40;;
43690;SDS011;29293;52.190;21.226;2022-12-07T02:55:59;37.80;;;21.10;;
43690;SDS011;29293;52.190;21.226;2022-12-07T03:11:12;32.10;;;18.20;;
43690;SDS011;29293;52.190;21.226;2022-12-07T03:26:23;26.90;;;16.70;;
43690;SDS011;29293;52.190;21.226;2022-12-07T03:41:39;29.80;;;16.20;;
43690;SDS011;29293;52.190;21.226;2022-12-07T03:56:47;20.60;;;11.80;;
43690;SDS011;29293;52.190;21.226;2022-12-07T04:11:55;14.30;;;8.40;;
43690;SDS011;29293;52.190;21.226;2022-12-07T04:27:03;13.70;;;8.20;;
43690;SDS011;29293;52.190;21.226;2022-12-07T04:42:11;12.80;;;7.80;;
43690;SDS011;29293;52.190;21.226;2022-12-07T04:57:19;11.30;;;7.30;;
43690;SDS011;29293;52.190;21.226;2022-12-07T05:12:26;11.80;;;7.40;;
43690;SDS011;29293;52.190;21.226;2022-12-07T05:27:33;12.80;;;7.90;;
43690;SDS011;29293;52.190;21.226;2022-12-07T05:42:43;16.80;;;9.10;;
43690;SDS011;29293;52.190;21.226;2022-12-07T05:57:51;17.80;;;10.00;;
43690;SDS011;29293;52.190;21.226;2022-12-07T06:13:19;17.50;;;10.80;;
43690;SDS011;29293;52.190;21.226;2022-12-07T06:28:26;21.30;;;14.90;;
43690;SDS011;29293;52.190;21.226;2022-12-07T06:43:34;22.50;;;12.60;;
43690;SDS011;29293;52.190;21.226;2022-12-07T06:58:42;18.90;;;12.00;;
43690;SDS011;29293;52.190;21.226;2022-12-07T07:13:49;20.70;;;12.20;;
43690;SDS011;29293;52.190;21.226;2022-12-07T07:28:57;19.90;;;11.30;;
43690;SDS011;29293;52.190;21.226;2022-12-07T07:44:05;19.00;;;11.50;;
43690;SDS011;29293;52.190;21.226;2022-12-07T07:59:12;24.20;;;11.60;;
43690;SDS011;29293;52.190;21.226;2022-12-07T08:14:19;20.50;;;12.20;;
43690;SDS011;29293;52.190;21.226;2022-12-07T08:29:27;20.10;;;11.50;;
43690;SDS011;29293;52.190;21.226;2022-12-07T08:44:34;22.50;;;11.80;;
43690;SDS011;29293;52.190;21.226;2022-12-07T08:59:41;20.40;;;12.00;;
43690;SDS011;29293;52.190;21.226;2022-12-07T09:14:48;22.80;;;14.10;;
43690;SDS011;29293;52.190;21.226;2022-12-07T09:29:55;27.60;;;15.60;;
43690;SDS011;29293;52.190;21.226;2022-12-07T09:45:04;37.30;;;18.90;;
43690;SDS011;29293;52.190;21.226;2022-12-07T10:00:15;31.80;;;16.30;;
43690;SDS011;29293;52.190;21.226;2022-12-07T10:15:37;33.70;;;16.50;;
43690;SDS011;29293;52.190;21.226;2022-12-07T10:30:56;31.50;;;15.90;;
43690;SDS011;29293;52.190;21.226;2022-12-07T10:46:10;29.70;;;15.50;;
43690;SDS011;29293;52.190;21.226;2022-12-07T11:01:43;30.20;;;15.30;;
43690;SDS011;29293;52.190;21.226;2022-12-07T11:16:57;25.70;;;14.70;;
43690;SDS011;29293;52.190;21.226;2022-12-07T11:32:14;21.90;;;13.80;;
43690;SDS011;29293;52.190;21.226;2022-12-07T11:47:30;33.20;;;17.70;;
43690;SDS011;29293;52.190;21.226;2022-12-07T12:02:46;29.80;;;16.80;;
43690;SDS011;29293;52.190;21.226;2022-12-07T12:33:30;26.20;;;15.60;;
43690;SDS011;29293;52.190;21.226;2022-12-07T12:48:41;22.40;;;13.60;;
43690;SDS011;29293;52.190;21.226;2022-12-07T13:03:53;25.20;;;15.40;;
43690;SDS011;29293;52.190;21.226;2022-12-07T13:19:02;24.90;;;15.40;;
43690;SDS011;29293;52.190;21.226;2022-12-07T13:34:34;22.40;;;14.00;;
43690;SDS011;29293;52.190;21.226;2022-12-07T13:49:47;22.80;;;13.50;;
43690;SDS011;29293;52.190;21.226;2022-12-07T14:05:07;24.60;;;16.10;;
43690;SDS011;29293;52.190;21.226;2022-12-07T14:20:34;24.50;;;14.90;;
43690;SDS011;29293;52.190;21.226;2022-12-07T14:35:43;22.20;;;14.80;;
43690;SDS011;29293;52.190;21.226;2022-12-07T14:50:51;27.50;;;16.10;;
43690;SDS011;29293;52.190;21.226;2022-12-07T15:06:00;27.00;;;16.80;;
43690;SDS011;29293;52.190;21.226;2022-12-07T15:21:11;26.50;;;18.00;;
43690;SDS011;29293;52.190;21.226;2022-12-07T15:36:22;26.50;;;17.20;;
43690;SDS011;29293;52.190;21.226;2022-12-07T15:51:31;29.00;;;18.40;;
43690;SDS011;29293;52.190;21.226;2022-12-07T16:06:38;30.00;;;18.00;;
43690;SDS011;29293;52.190;21.226;2022-12-07T16:21:46;29.10;;;16.20;;
43690;SDS011;29293;52.190;21.226;2022-12-07T16:36:53;31.90;;;17.80;;
43690;SDS011;29293;52.190;21.226;2022-12-07T16:52:01;32.20;;;18.00;;
43690;SDS011;29293;52.190;21.226;2022-12-07T17:07:08;35.10;;;19.60;;
43690;SDS011;29293;52.190;21.226;2022-12-07T17:22:16;29.70;;;17.30;;
43690;SDS011;29293;52.190;21.226;2022-12-07T17:37:24;38.10;;;20.90;;
43690;SDS011;29293;52.190;21.226;2022-12-07T17:52:38;34.00;;;20.20;;
43690;SDS011;29293;52.190;21.226;2022-12-07T18:08:08;35.30;;;20.40;;
43690;SDS011;29293;52.190;21.226;2022-12-07T18:23:15;34.70;;;19.70;;
43690;SDS011;29293;52.190;21.226;2022-12-07T18:38:29;38.00;;;21.10;;
43690;SDS011;29293;52.190;21.226;2022-12-07T18:53:37;28.80;;;16.10;;
43690;SDS011;29293;52.190;21.226;2022-12-07T19:08:45;27.90;;;16.60;;
43690;SDS011;29293;52.190;21.226;2022-12-07T19:23:52;23.30;;;15.20;;
43690;SDS011;29293;52.190;21.226;2022-12-07T19:39:00;24.50;;;15.70;;
43690;SDS011;29293;52.190;21.226;2022-12-07T19:54:09;23.50;;;14.90;;
43690;SDS011;29293;52.190;21.226;2022-12-07T20:09:19;26.20;;;18.30;;
43690;SDS011;29293;52.190;21.226;2022-12-07T20:24:26;19.90;;;12.40;;
43690;SDS011;29293;52.190;21.226;2022-12-07T20:39:34;16.50;;;9.70;;
43690;SDS011;29293;52.190;21.226;2022-12-07T20:54:41;18.50;;;12.00;;
43690;SDS011;29293;52.190;21.226;2022-12-07T21:09:48;13.20;;;8.50;;
43690;SDS011;29293;52.190;21.226;2022-12-07T21:24:56;14.80;;;9.10;;
43690;SDS011;29293;52.190;21.226;2022-12-07T21:40:03;15.50;;;9.10;;
43690;SDS011;29293;52.190;21.226;2022-12-07T21:55:12;13.20;;;7.70;;
43690;SDS011;29293;52.190;21.226;2022-12-07T22:10:20;17.30;;;8.00;;
43690;SDS011;29293;52.190;21.226;2022-12-07T22:25:33;14.80;;;8.20;;
43690;SDS011;29293;52.190;21.226;2022-12-07T22:40:43;12.30;;;7.50;;
43690;SDS011;29293;52.190;21.226;2022-12-07T22:55:50;13.80;;;7.50;;
43690;SDS011;29293;52.190;21.226;2022-12-07T23:10:58;14.50;;;6.90;;
43690;SDS011;29293;52.190;21.226;2022-12-07T23:26:06;16.90;;;8.70;;
43690;SDS011;29293;52.190;21.226;2022-12-07T23:41:15;17.80;;;8.30;;
43690;SDS011;29293;52.190;21.226;2022-12-07T23:56:24;11.10;;;5.70;;
